الصفحة الرئيسية
METAR-TAF:

METAR-TAF

مطار :

Vavaʻu, تونجا

دائرة عرض: 18-35-07S, خط طول: 173-57-42W, ارتفاع: 72 متر

مراقبة الطقس الحالي

تاريخ ووقت الإصدار 25 دقيقة قبل الساعة 15:00UTC
رياح هادئة
درجة الحرارة 19°درجة مئوية
الرطوبة 94%
ضغط 1011 hPa
الرؤية 10 كم أو أكثر
غيوم قليلة على ارتفاع 2000 قدم

METAR: NFTV 111500Z 00000KT 9999 FEW020 19/18 Q1011 RMK GRASS DEW

زمن: 04:25 (15:25 UTC)

توقعات

تاريخ ووقت الإصدار 4ساعات و 21 دقيقة قبل الساعة 11:04UTC
التوقعات صالحة من11 الساعة 12 UTC إلى 12 الساعة 12 UTC
ريح 5 عقدة من الشرق/الجنوب الشرقي
الرؤية 10 كم أو أكثر
غيوم قليلة على ارتفاع 1800 قدم

TAF: NFTV 111104Z 1112/1212 12005KT 9999 FEW018

أرصاد الطقس والتوقعات من أكثر من 4000 مطار (تقارير الطقس للمطار METAR والتنبؤ بالطقس بالمطارTAF).

المحطات المتاحة هي النقط الصفراء والحمراء على الخريطة.

حرك المؤشر فوق النقطة لمعرفة اسم المحطة.

ثم انقر لمعرفة أرصاد وتوقعات الطقس.

لتغيير الخارطة: اضغط على الأزرار الخضراء مع رمز الصليب الأسود للتكبير. على الزر الأخضر مع شرطة للتصغير، أو على الأسهم الخضراء للخرائط المجاورة.


METAR-TAF: